createdAt,value
2017-09-12T00:02:16.619Z,14.30
2017-09-12T00:04:52.024Z,14.20
2017-09-12T00:07:25.191Z,14.30
2017-09-12T00:09:58.447Z,14.20
2017-09-12T00:12:32.696Z,14.20
2017-09-12T00:15:04.627Z,14.20
2017-09-12T00:17:41.085Z,14.30
2017-09-12T00:20:16.266Z,14.30
2017-09-12T00:22:49.059Z,14.30
2017-09-12T00:25:26.035Z,14.40
2017-09-12T00:28:05.497Z,14.40
2017-09-12T00:30:39.785Z,14.40
2017-09-12T00:33:12.705Z,14.40
2017-09-12T00:35:47.141Z,14.30
2017-09-12T00:38:19.408Z,14.30
2017-09-12T00:40:53.488Z,14.30
2017-09-12T00:43:28.644Z,14.30
2017-09-12T00:46:00.185Z,14.30
2017-09-12T00:48:34.724Z,14.30
2017-09-12T00:51:09.274Z,14.30
2017-09-12T00:53:42.709Z,14.30
2017-09-12T00:56:22.760Z,14.40
2017-09-12T00:58:58.044Z,14.40
2017-09-12T01:01:33.445Z,14.40
2017-09-12T01:04:08.524Z,14.40
2017-09-12T01:06:42.919Z,14.30
2017-09-12T01:09:15.796Z,14.30
2017-09-12T01:11:49.089Z,14.40
2017-09-12T01:14:22.766Z,14.40
2017-09-12T01:16:55.797Z,14.40
2017-09-12T01:19:29.482Z,14.40
2017-09-12T01:22:02.679Z,14.40
2017-09-12T01:24:36.804Z,14.40
2017-09-12T01:27:12.474Z,14.40
2017-09-12T01:29:44.629Z,14.40
2017-09-12T01:32:16.978Z,14.40
2017-09-12T01:34:49.269Z,14.40
2017-09-12T01:37:25.942Z,14.40
2017-09-12T01:39:58.584Z,14.30
2017-09-12T01:42:31.536Z,14.30
2017-09-12T01:45:04.507Z,14.40
2017-09-12T01:47:36.190Z,14.40
2017-09-12T01:50:10.539Z,14.40
2017-09-12T01:52:46.656Z,14.40
2017-09-12T01:55:19.750Z,14.40
2017-09-12T01:57:54.127Z,14.30
2017-09-12T02:00:28.569Z,14.30
2017-09-12T02:03:00.827Z,14.30
2017-09-12T02:05:32.949Z,14.40
2017-09-12T02:08:06.634Z,14.30
2017-09-12T02:10:40.252Z,14.40
2017-09-12T02:13:13.199Z,14.30
2017-09-12T02:15:46.892Z,14.30
2017-09-12T02:18:20.645Z,14.30
2017-09-12T02:20:53.451Z,14.30
2017-09-12T02:23:27.728Z,14.30
2017-09-12T02:26:02.541Z,14.30
2017-09-12T02:28:34.515Z,14.30
2017-09-12T02:31:08.852Z,14.30
2017-09-12T02:33:41.390Z,14.30
2017-09-12T02:36:14.744Z,14.30
2017-09-12T02:38:56.500Z,14.30
2017-09-12T02:41:30.987Z,14.20
2017-09-12T02:44:04.677Z,14.30
2017-09-12T02:46:39.987Z,14.20
2017-09-12T02:49:14.281Z,14.10
2017-09-12T02:51:51.355Z,14.30
2017-09-12T02:54:23.194Z,14.30
2017-09-12T02:56:55.357Z,14.20
2017-09-12T02:59:27.440Z,14.30
2017-09-12T03:01:58.895Z,14.20
2017-09-12T03:04:32.827Z,14.20
2017-09-12T03:07:05.409Z,14.10
2017-09-12T03:09:39.210Z,14.20
2017-09-12T03:12:12.148Z,14.10
2017-09-12T03:14:44.054Z,14.10
2017-09-12T03:17:18.045Z,14.00
2017-09-12T03:19:51.121Z,14.00
2017-09-12T03:22:23.304Z,14.00
2017-09-12T03:24:56.472Z,13.80
2017-09-12T03:27:29.485Z,13.80
2017-09-12T03:30:02.579Z,13.80
2017-09-12T03:32:37.497Z,13.70
2017-09-12T03:35:10.427Z,13.70
2017-09-12T03:37:43.375Z,13.70
2017-09-12T03:40:22.295Z,13.70
2017-09-12T03:42:56.209Z,13.70
2017-09-12T03:45:29.443Z,13.80
2017-09-12T03:48:03.712Z,13.70
2017-09-12T03:50:35.715Z,13.70
2017-09-12T03:53:10.038Z,13.80
2017-09-12T03:55:43.778Z,13.70
2017-09-12T03:58:16.612Z,13.70
2017-09-12T04:00:51.293Z,13.70
2017-09-12T04:03:24.293Z,13.60
2017-09-12T04:05:57.305Z,13.60
2017-09-12T04:08:31.191Z,13.70
2017-09-12T04:11:04.294Z,13.70
2017-09-12T04:13:36.533Z,13.70
2017-09-12T04:16:09.332Z,13.80
2017-09-12T04:18:42.320Z,13.70
2017-09-12T04:21:16.290Z,13.70
2017-09-12T04:23:53.873Z,13.70
2017-09-12T04:26:31.912Z,13.70
2017-09-12T04:29:11.525Z,13.70
2017-09-12T04:31:45.300Z,13.70
2017-09-12T04:34:18.667Z,13.70
2017-09-12T07:47:25.886Z,14.20
2017-09-12T07:49:56.191Z,14.20
2017-09-12T07:52:26.626Z,14.20
2017-09-12T07:54:58.382Z,14.20
2017-09-12T07:57:28.637Z,14.20
2017-09-12T07:59:59.278Z,14.20
2017-09-12T08:02:30.686Z,14.40
2017-09-12T08:05:03.518Z,14.40
2017-09-12T08:07:33.921Z,14.40
2017-09-12T08:10:04.522Z,14.50
2017-09-12T08:12:34.867Z,14.50
2017-09-12T08:15:05.315Z,14.50
2017-09-12T08:17:36.248Z,14.40
2017-09-12T08:20:07.988Z,14.30
2017-09-12T08:22:38.601Z,14.40
2017-09-12T08:25:09.118Z,14.50
2017-09-12T08:27:39.639Z,14.70
2017-09-12T08:30:09.926Z,15.00
2017-09-12T08:32:40.223Z,15.00
2017-09-12T08:35:18.556Z,14.90
2017-09-12T08:37:50.099Z,14.70
2017-09-12T08:40:20.664Z,14.60
2017-09-12T08:42:51.393Z,14.70
2017-09-12T08:45:22.619Z,15.10
2017-09-12T08:47:53.062Z,15.10
2017-09-12T08:50:23.950Z,15.10
2017-09-12T08:52:54.961Z,15.10
2017-09-12T08:55:25.342Z,15.00
2017-09-12T08:57:56.294Z,15.10
2017-09-12T09:00:28.116Z,15.10
2017-09-12T09:02:58.567Z,15.50
2017-09-12T09:05:28.843Z,15.90
2017-09-12T09:07:59.076Z,16.70
2017-09-12T09:10:29.383Z,17.10
2017-09-12T09:12:59.835Z,17.40
2017-09-12T09:15:30.468Z,17.50
2017-09-12T09:18:00.945Z,17.10
2017-09-12T09:20:31.557Z,16.80
2017-09-12T09:23:03.042Z,17.20
2017-09-12T09:25:33.790Z,17.70
2017-09-12T09:28:04.223Z,17.70
2017-09-12T09:30:34.668Z,18.00
2017-09-12T09:33:06.180Z,17.90
2017-09-12T09:35:37.329Z,17.70
2017-09-12T09:38:07.903Z,17.60
2017-09-12T09:40:39.183Z,17.20
2017-09-12T09:43:10.203Z,17.70
2017-09-12T09:45:40.855Z,17.70
2017-09-12T09:48:12.260Z,17.90
2017-09-12T09:50:44.280Z,18.20
2017-09-12T09:53:15.274Z,18.10
2017-09-12T09:55:46.639Z,18.00
2017-09-12T09:58:17.246Z,18.00
2017-09-12T10:00:47.603Z,17.70
2017-09-12T10:03:18.578Z,17.20
2017-09-12T10:05:48.929Z,17.20
2017-09-12T10:08:19.435Z,17.20
2017-09-12T10:10:49.891Z,17.50
2017-09-12T10:13:20.253Z,17.60
2017-09-12T10:15:51.673Z,17.20
2017-09-12T10:18:22.149Z,17.20
2017-09-12T10:20:53.154Z,17.80
2017-09-12T10:23:23.357Z,17.80
2017-09-12T10:25:53.618Z,17.80
2017-09-12T10:28:24.018Z,18.30
2017-09-12T10:30:54.355Z,18.30
2017-09-12T10:33:24.779Z,18.30
2017-09-12T10:35:55.465Z,18.70
2017-09-12T10:38:26.099Z,19.40
2017-09-12T10:40:56.475Z,19.80
2017-09-12T10:43:27.775Z,20.40
2017-09-12T10:45:58.278Z,20.30
2017-09-12T10:48:28.701Z,19.70
2017-09-12T10:51:00.769Z,19.30
2017-09-12T10:53:31.542Z,19.40
2017-09-12T10:56:02.238Z,19.60
2017-09-12T10:58:33.250Z,19.60
2017-09-12T11:01:04.434Z,19.60
2017-09-12T11:03:34.675Z,19.60
2017-09-12T11:06:05.902Z,19.20
2017-09-12T11:08:36.750Z,19.50
2017-09-12T11:11:07.938Z,19.70
2017-09-12T11:13:38.531Z,20.00
2017-09-12T11:16:09.429Z,19.50
2017-09-12T11:18:40.799Z,18.70
2017-09-12T11:21:11.210Z,18.70
2017-09-12T11:23:42.210Z,18.20
2017-09-12T11:26:12.557Z,18.20
2017-09-12T11:28:43.727Z,19.20
2017-09-12T11:31:14.124Z,19.20
2017-09-12T11:33:44.391Z,19.30
2017-09-12T11:36:14.736Z,19.60
2017-09-12T11:38:45.625Z,19.60
2017-09-12T11:41:16.692Z,20.10
2017-09-12T11:43:47.440Z,20.10
2017-09-12T11:46:18.054Z,19.80
2017-09-12T11:48:48.414Z,20.20
2017-09-12T11:51:18.653Z,20.20
2017-09-12T11:53:49.578Z,20.20
2017-09-12T11:56:19.835Z,19.80
2017-09-12T11:58:50.950Z,18.80
2017-09-12T12:01:21.589Z,18.80
2017-09-12T12:03:52.044Z,18.70
2017-09-12T12:06:23.049Z,18.70
2017-09-12T12:08:54.331Z,18.20
2017-09-12T12:11:24.908Z,18.20
2017-09-12T12:13:55.294Z,18.50
2017-09-12T12:16:25.634Z,18.60
2017-09-12T12:18:55.989Z,18.60
2017-09-12T12:21:26.687Z,18.50
2017-09-12T12:23:57.065Z,18.00
2017-09-12T12:26:27.639Z,18.00
2017-09-12T12:28:58.969Z,17.70
2017-09-12T12:31:29.577Z,17.20
2017-09-12T12:33:59.981Z,17.10
2017-09-12T12:36:30.553Z,16.70
2017-09-12T12:39:01.050Z,17.10
2017-09-12T12:41:32.308Z,16.90
2017-09-12T12:44:02.704Z,16.90
2017-09-12T12:46:33.743Z,16.70
2017-09-12T12:49:05.445Z,16.30
2017-09-12T12:51:36.996Z,16.20
2017-09-12T12:54:07.434Z,16.10
2017-09-12T12:56:38.585Z,15.80
2017-09-12T12:59:09.567Z,15.80
2017-09-12T13:01:43.064Z,15.50
2017-09-12T13:04:14.859Z,15.40
2017-09-12T13:06:46.214Z,15.50
2017-09-12T13:09:16.653Z,15.80
2017-09-12T13:11:46.874Z,15.90
2017-09-12T13:14:17.193Z,15.90
2017-09-12T13:16:47.444Z,16.10
2017-09-12T13:19:17.777Z,16.30
2017-09-12T13:21:48.029Z,16.60
2017-09-12T13:24:18.929Z,16.40
2017-09-12T13:26:49.391Z,16.40
2017-09-12T13:29:20.595Z,16.00
2017-09-12T13:31:51.619Z,16.00
2017-09-12T13:34:22.419Z,16.00
2017-09-12T13:36:53.783Z,15.90
2017-09-12T13:39:25.076Z,15.30
2017-09-12T13:41:55.787Z,15.30
2017-09-12T13:44:26.098Z,14.90
2017-09-12T13:46:56.514Z,14.60
2017-09-12T13:49:26.930Z,14.50
2017-09-12T13:51:57.305Z,14.50
2017-09-12T13:54:27.527Z,14.50
2017-09-12T13:56:58.156Z,14.50
2017-09-12T13:59:28.543Z,14.60
2017-09-12T14:01:59.201Z,14.50
2017-09-12T14:04:29.468Z,14.50
2017-09-12T14:07:02.296Z,14.50
2017-09-12T14:09:32.617Z,14.20
2017-09-12T14:12:03.844Z,14.30
2017-09-12T14:14:35.484Z,14.10
2017-09-12T14:17:06.024Z,14.10
2017-09-12T14:19:36.305Z,14.00
2017-09-12T14:22:06.618Z,14.10
2017-09-12T14:24:37.187Z,14.30
2017-09-12T14:27:07.485Z,14.50
2017-09-12T14:29:37.869Z,14.90
2017-09-12T14:32:08.480Z,15.40
2017-09-12T14:34:39.467Z,16.20
2017-09-12T14:37:10.196Z,16.10
2017-09-12T14:39:40.704Z,16.30
2017-09-12T14:42:11.558Z,16.50
2017-09-12T14:44:41.979Z,16.50
2017-09-12T14:47:12.458Z,16.40
2017-09-12T14:49:42.683Z,16.80
2017-09-12T14:52:13.868Z,17.10
2017-09-12T14:54:45.535Z,17.00
2017-09-12T14:57:16.126Z,17.40
2017-09-12T14:59:47.114Z,17.30
2017-09-12T15:02:17.549Z,17.30
2017-09-12T15:04:47.825Z,16.80
2017-09-12T15:07:18.147Z,16.80
2017-09-12T15:09:48.710Z,17.10
2017-09-12T15:12:19.057Z,17.10
2017-09-12T15:14:50.705Z,17.40
2017-09-12T15:17:22.780Z,17.40
2017-09-12T15:19:53.050Z,17.30
2017-09-12T15:22:23.638Z,17.40
2017-09-12T15:24:54.835Z,16.90
2017-09-12T15:27:27.322Z,16.80
2017-09-12T15:29:59.735Z,16.80
2017-09-12T15:32:30.093Z,16.70
2017-09-12T15:35:01.542Z,16.90
2017-09-12T15:37:35.195Z,17.00
2017-09-12T15:40:06.348Z,16.90
2017-09-12T15:42:37.129Z,16.80
2017-09-12T15:45:09.934Z,16.90
2017-09-12T15:47:41.867Z,16.80
2017-09-12T15:50:12.224Z,16.90
2017-09-12T15:52:42.915Z,17.00
2017-09-12T15:55:13.877Z,17.10
2017-09-12T15:57:46.331Z,17.20
2017-09-12T16:00:17.777Z,17.00
2017-09-12T16:02:49.458Z,17.00
2017-09-12T16:05:19.870Z,16.80
2017-09-12T16:07:51.912Z,16.80
2017-09-12T16:10:22.202Z,16.80
2017-09-12T16:12:53.522Z,16.80
2017-09-12T16:15:24.452Z,16.70
2017-09-12T16:17:54.797Z,16.60
2017-09-12T16:20:25.246Z,16.60
2017-09-12T16:22:57.668Z,16.60
2017-09-12T16:25:28.237Z,16.60
2017-09-12T16:28:15.370Z,16.60
2017-09-12T16:30:46.907Z,16.50
2017-09-12T16:33:17.575Z,16.40
2017-09-12T16:35:48.246Z,16.20
2017-09-12T16:38:19.925Z,16.20
2017-09-12T16:40:51.978Z,16.20
2017-09-12T16:43:22.394Z,16.20
2017-09-12T16:45:53.705Z,16.20
2017-09-12T16:48:24.730Z,16.20
2017-09-12T16:50:55.161Z,16.20
2017-09-12T16:53:27.008Z,16.10
2017-09-12T16:55:57.334Z,15.90
2017-09-12T16:58:27.714Z,16.10
2017-09-12T17:00:58.291Z,16.00
2017-09-12T17:03:28.667Z,16.20
2017-09-12T17:06:00.242Z,16.00
2017-09-12T17:08:30.841Z,16.10
2017-09-12T17:11:01.255Z,16.20
2017-09-12T17:13:32.639Z,16.00
2017-09-12T17:16:03.395Z,15.90
2017-09-12T17:18:33.840Z,16.00
2017-09-12T17:21:04.317Z,15.90
2017-09-12T17:23:35.668Z,15.90
2017-09-12T17:26:06.204Z,15.80
2017-09-12T17:28:37.479Z,15.70
2017-09-12T17:31:08.052Z,15.60
2017-09-12T17:36:11.590Z,15.40
2017-09-12T17:38:42.759Z,15.40
2017-09-12T17:41:13.284Z,15.30
2017-09-12T17:43:44.314Z,15.30
2017-09-12T17:46:14.912Z,15.30
2017-09-12T17:48:46.130Z,15.30
2017-09-12T17:51:16.814Z,15.30
2017-09-12T17:53:48.422Z,15.10
2017-09-12T17:56:18.899Z,15.10
2017-09-12T17:58:49.318Z,15.10
2017-09-12T18:01:19.679Z,15.10
2017-09-12T18:03:51.586Z,15.00
2017-09-12T18:06:22.019Z,14.90
2017-09-12T18:08:52.904Z,14.90
2017-09-12T18:11:23.382Z,14.70
2017-09-12T18:13:53.928Z,14.60
2017-09-12T18:16:24.491Z,14.50
2017-09-12T18:18:55.236Z,14.50
2017-09-12T18:21:34.812Z,14.60
2017-09-12T18:24:38.217Z,14.60
2017-09-12T18:27:12.867Z,14.60
2017-09-12T18:29:47.742Z,14.70
2017-09-12T18:32:23.050Z,14.70
2017-09-12T18:37:35.579Z,14.20
2017-09-12T18:40:13.056Z,14.10
2017-09-12T18:42:50.251Z,14.10
2017-09-12T18:45:25.273Z,13.80
2017-09-12T18:48:02.051Z,13.80
2017-09-12T18:50:37.660Z,13.70
2017-09-12T18:53:13.134Z,13.70
2017-09-12T18:55:50.757Z,13.50
2017-09-12T18:58:27.388Z,13.50
2017-09-12T19:01:03.454Z,13.60
2017-09-12T19:03:40.308Z,13.80
2017-09-12T19:06:15.575Z,13.90
2017-09-12T19:08:49.015Z,13.70
2017-09-12T19:11:23.882Z,13.80
2017-09-12T19:14:01.219Z,13.80
2017-09-12T19:16:34.677Z,13.50
2017-09-12T19:19:09.436Z,13.40
2017-09-12T19:21:44.422Z,13.40
2017-09-12T19:24:22.024Z,13.40
2017-09-12T19:26:59.425Z,13.40
2017-09-12T19:29:33.198Z,13.50
2017-09-12T19:32:07.543Z,13.40
2017-09-12T19:34:42.326Z,13.30
2017-09-12T19:37:16.881Z,13.10
2017-09-12T19:39:52.025Z,13.20
2017-09-12T19:42:26.964Z,13.20
2017-09-12T19:45:04.051Z,13.20
2017-09-12T19:47:50.196Z,13.30
2017-09-12T19:50:27.648Z,13.30
2017-09-12T19:53:03.306Z,13.20
2017-09-12T19:55:38.523Z,13.00
2017-09-12T19:58:15.231Z,12.90
2017-09-12T20:00:51.514Z,12.90
2017-09-12T20:03:27.671Z,12.90
2017-09-12T20:06:02.469Z,13.00
2017-09-12T20:08:39.976Z,13.10
2017-09-12T20:11:16.102Z,13.10
2017-09-12T20:13:52.940Z,13.00
2017-09-12T20:16:29.039Z,13.00
2017-09-12T20:19:07.489Z,12.90
2017-09-12T20:21:44.180Z,12.90
2017-09-12T20:24:24.716Z,12.90
2017-09-12T20:27:01.393Z,12.80
2017-09-12T20:29:32.709Z,12.80
2017-09-12T20:32:04.724Z,12.80
2017-09-12T20:34:41.942Z,12.90
2017-09-12T20:37:13.061Z,12.90
2017-09-12T20:39:44.235Z,12.60
2017-09-12T20:42:15.733Z,12.60
2017-09-12T20:44:47.019Z,12.50
2017-09-12T20:47:17.341Z,12.40
2017-09-12T20:49:57.529Z,12.30
2017-09-12T20:52:30.813Z,12.20
2017-09-12T20:55:01.599Z,12.20
2017-09-12T20:57:32.451Z,12.10
2017-09-12T21:00:04.050Z,12.10
2017-09-12T21:02:34.972Z,12.10
2017-09-12T21:05:05.712Z,12.20
2017-09-12T21:07:36.708Z,12.10
2017-09-12T21:10:08.831Z,12.10
2017-09-12T21:12:40.080Z,12.00
2017-09-12T21:15:11.395Z,12.10
2017-09-12T21:17:41.997Z,12.00
2017-09-12T21:20:12.543Z,12.00
2017-09-12T21:22:43.935Z,12.10
2017-09-12T21:25:15.077Z,12.00
2017-09-12T21:27:45.503Z,12.00
2017-09-12T21:30:16.841Z,11.90
2017-09-12T21:32:48.154Z,11.80
2017-09-12T21:35:19.205Z,11.80
2017-09-12T21:37:50.239Z,11.80
2017-09-12T21:40:22.533Z,11.80
2017-09-12T21:42:53.405Z,11.80
2017-09-12T21:45:25.661Z,11.80
2017-09-12T21:47:56.888Z,11.90
2017-09-12T21:50:39.460Z,12.00
2017-09-12T21:53:29.353Z,12.00
2017-09-12T21:56:28.137Z,12.00
2017-09-12T21:59:20.980Z,12.00
2017-09-12T22:02:04.215Z,12.00
2017-09-12T22:04:48.184Z,12.00
2017-09-12T22:07:28.274Z,12.10
2017-09-12T22:10:18.381Z,12.20
2017-09-12T22:13:01.555Z,12.20
2017-09-12T22:15:32.921Z,12.20
2017-09-12T22:18:04.023Z,12.30
2017-09-12T22:20:35.238Z,12.30
2017-09-12T22:23:05.935Z,12.20
2017-09-12T22:25:37.883Z,12.30
2017-09-12T22:28:09.403Z,12.30
2017-09-12T22:30:40.781Z,12.30
2017-09-12T22:33:13.085Z,12.30
2017-09-12T22:35:44.715Z,12.30
2017-09-12T22:38:15.063Z,12.30
2017-09-12T22:40:46.227Z,12.30
2017-09-12T22:43:18.161Z,12.30
2017-09-12T22:45:50.511Z,12.40
2017-09-12T22:48:21.557Z,12.40
2017-09-12T22:50:54.521Z,12.40
2017-09-12T22:53:25.897Z,12.40
2017-09-12T22:55:57.239Z,12.40
2017-09-12T22:58:28.473Z,12.40
2017-09-12T23:01:00.168Z,12.40
2017-09-12T23:03:31.619Z,12.40
2017-09-12T23:06:03.388Z,12.50
2017-09-12T23:08:34.621Z,12.40
2017-09-12T23:11:05.685Z,12.50
2017-09-12T23:13:36.688Z,12.50
2017-09-12T23:16:07.900Z,12.40
2017-09-12T23:18:39.004Z,12.40
2017-09-12T23:21:10.266Z,12.40
2017-09-12T23:23:42.240Z,12.40
2017-09-12T23:26:13.130Z,12.40
2017-09-12T23:28:45.184Z,12.40
2017-09-12T23:31:16.535Z,12.40
2017-09-12T23:33:47.700Z,12.40
2017-09-12T23:36:18.687Z,12.40
2017-09-12T23:38:49.600Z,12.40
2017-09-12T23:41:20.563Z,12.40
2017-09-12T23:43:52.552Z,12.40
2017-09-12T23:46:23.336Z,12.40
2017-09-12T23:48:54.110Z,12.30
2017-09-12T23:51:26.246Z,12.30
2017-09-12T23:53:58.098Z,12.30
2017-09-12T23:56:29.226Z,12.30
2017-09-12T23:59:00.621Z,12.20
